sensor_id;sensor_type;location;lat;lon;timestamp;P1;durP1;ratioP1;P2;durP2;ratioP2
25810;SDS011;13645;52.460;13.910;2023-07-20T00:00:42;5.53;;;3.50;;
25810;SDS011;13645;52.460;13.910;2023-07-20T00:03:12;8.10;;;3.58;;
25810;SDS011;13645;52.460;13.910;2023-07-20T00:05:43;8.98;;;3.40;;
25810;SDS011;13645;52.460;13.910;2023-07-20T00:08:10;4.35;;;3.47;;
25810;SDS011;13645;52.460;13.910;2023-07-20T00:10:37;7.07;;;3.22;;
25810;SDS011;13645;52.460;13.910;2023-07-20T00:13:04;6.15;;;3.65;;
25810;SDS011;13645;52.460;13.910;2023-07-20T00:15:34;5.18;;;3.05;;
25810;SDS011;13645;52.460;13.910;2023-07-20T00:18:01;6.32;;;3.72;;
25810;SDS011;13645;52.460;13.910;2023-07-20T00:20:27;7.82;;;3.55;;
25810;SDS011;13645;52.460;13.910;2023-07-20T00:22:54;5.93;;;3.22;;
25810;SDS011;13645;52.460;13.910;2023-07-20T00:25:24;6.13;;;3.90;;
25810;SDS011;13645;52.460;13.910;2023-07-20T00:27:51;6.97;;;3.83;;
25810;SDS011;13645;52.460;13.910;2023-07-20T00:30:24;7.20;;;3.60;;
25810;SDS011;13645;52.460;13.910;2023-07-20T00:32:51;6.65;;;3.83;;
25810;SDS011;13645;52.460;13.910;2023-07-20T00:35:18;5.22;;;3.70;;
25810;SDS011;13645;52.460;13.910;2023-07-20T00:37:44;6.70;;;3.80;;
25810;SDS011;13645;52.460;13.910;2023-07-20T00:40:11;6.82;;;3.40;;
25810;SDS011;13645;52.460;13.910;2023-07-20T00:42:38;5.78;;;3.47;;
25810;SDS011;13645;52.460;13.910;2023-07-20T00:45:05;7.88;;;3.38;;
25810;SDS011;13645;52.460;13.910;2023-07-20T00:47:32;5.38;;;3.78;;
25810;SDS011;13645;52.460;13.910;2023-07-20T00:49:59;6.95;;;3.40;;
25810;SDS011;13645;52.460;13.910;2023-07-20T00:52:27;8.15;;;3.60;;
25810;SDS011;13645;52.460;13.910;2023-07-20T00:54:55;5.88;;;3.55;;
25810;SDS011;13645;52.460;13.910;2023-07-20T00:57:23;4.70;;;3.53;;
25810;SDS011;13645;52.460;13.910;2023-07-20T00:59:52;8.98;;;3.83;;
25810;SDS011;13645;52.460;13.910;2023-07-20T01:02:19;5.90;;;3.83;;
25810;SDS011;13645;52.460;13.910;2023-07-20T01:04:46;5.05;;;3.95;;
25810;SDS011;13645;52.460;13.910;2023-07-20T01:07:23;5.32;;;3.53;;
25810;SDS011;13645;52.460;13.910;2023-07-20T01:10:33;8.65;;;3.55;;
25810;SDS011;13645;52.460;13.910;2023-07-20T01:12:47;8.13;;;3.75;;
25810;SDS011;13645;52.460;13.910;2023-07-20T01:15:19;4.50;;;3.28;;
25810;SDS011;13645;52.460;13.910;2023-07-20T01:17:46;8.73;;;4.13;;
25810;SDS011;13645;52.460;13.910;2023-07-20T01:20:14;5.57;;;3.60;;
25810;SDS011;13645;52.460;13.910;2023-07-20T01:33:55;4.13;;;3.67;;
25810;SDS011;13645;52.460;13.910;2023-07-20T01:36:24;12.23;;;3.75;;
25810;SDS011;13645;52.460;13.910;2023-07-20T01:38:54;7.95;;;3.85;;
25810;SDS011;13645;52.460;13.910;2023-07-20T01:41:22;6.53;;;4.15;;
25810;SDS011;13645;52.460;13.910;2023-07-20T01:46:50;6.05;;;4.00;;
25810;SDS011;13645;52.460;13.910;2023-07-20T01:49:17;7.35;;;4.43;;
25810;SDS011;13645;52.460;13.910;2023-07-20T01:51:44;12.68;;;4.30;;
25810;SDS011;13645;52.460;13.910;2023-07-20T01:54:14;7.63;;;4.25;;
25810;SDS011;13645;52.460;13.910;2023-07-20T01:56:41;8.40;;;4.28;;
25810;SDS011;13645;52.460;13.910;2023-07-20T01:59:08;5.63;;;3.78;;
25810;SDS011;13645;52.460;13.910;2023-07-20T02:01:35;6.25;;;3.83;;
25810;SDS011;13645;52.460;13.910;2023-07-20T02:04:02;7.68;;;4.10;;
25810;SDS011;13645;52.460;13.910;2023-07-20T02:06:31;5.55;;;4.20;;
25810;SDS011;13645;52.460;13.910;2023-07-20T02:09:04;5.68;;;3.90;;
25810;SDS011;13645;52.460;13.910;2023-07-20T02:11:31;5.38;;;3.70;;
25810;SDS011;13645;52.460;13.910;2023-07-20T02:14:01;12.45;;;4.13;;
25810;SDS011;13645;52.460;13.910;2023-07-20T02:16:28;6.45;;;4.00;;
25810;SDS011;13645;52.460;13.910;2023-07-20T02:18:54;7.88;;;4.28;;
25810;SDS011;13645;52.460;13.910;2023-07-20T02:21:23;7.05;;;4.25;;
25810;SDS011;13645;52.460;13.910;2023-07-20T02:23:50;6.05;;;3.90;;
25810;SDS011;13645;52.460;13.910;2023-07-20T02:26:18;4.68;;;3.85;;
25810;SDS011;13645;52.460;13.910;2023-07-20T02:28:45;5.63;;;4.63;;
25810;SDS011;13645;52.460;13.910;2023-07-20T02:31:12;5.28;;;4.22;;
25810;SDS011;13645;52.460;13.910;2023-07-20T02:33:39;7.85;;;4.03;;
25810;SDS011;13645;52.460;13.910;2023-07-20T02:36:06;6.35;;;4.07;;
25810;SDS011;13645;52.460;13.910;2023-07-20T02:38:33;6.60;;;4.32;;
25810;SDS011;13645;52.460;13.910;2023-07-20T02:41:02;7.20;;;3.72;;
25810;SDS011;13645;52.460;13.910;2023-07-20T02:43:31;9.75;;;4.32;;
25810;SDS011;13645;52.460;13.910;2023-07-20T02:45:58;6.63;;;4.10;;
25810;SDS011;13645;52.460;13.910;2023-07-20T02:48:25;6.75;;;4.47;;
25810;SDS011;13645;52.460;13.910;2023-07-20T02:50:52;5.20;;;4.22;;
25810;SDS011;13645;52.460;13.910;2023-07-20T02:53:19;10.85;;;4.57;;
25810;SDS011;13645;52.460;13.910;2023-07-20T02:55:46;5.15;;;3.97;;
25810;SDS011;13645;52.460;13.910;2023-07-20T02:58:13;6.10;;;4.43;;
25810;SDS011;13645;52.460;13.910;2023-07-20T03:00:42;5.75;;;3.80;;
25810;SDS011;13645;52.460;13.910;2023-07-20T03:03:10;8.27;;;4.63;;
25810;SDS011;13645;52.460;13.910;2023-07-20T03:05:40;5.60;;;4.13;;
25810;SDS011;13645;52.460;13.910;2023-07-20T03:08:07;6.10;;;4.40;;
25810;SDS011;13645;52.460;13.910;2023-07-20T03:10:39;6.60;;;4.03;;
25810;SDS011;13645;52.460;13.910;2023-07-20T03:13:09;4.63;;;3.92;;
25810;SDS011;13645;52.460;13.910;2023-07-20T03:15:36;7.78;;;4.35;;
25810;SDS011;13645;52.460;13.910;2023-07-20T03:18:11;5.55;;;4.30;;
25810;SDS011;13645;52.460;13.910;2023-07-20T03:28:21;5.87;;;4.20;;
25810;SDS011;13645;52.460;13.910;2023-07-20T03:34:40;7.70;;;5.20;;
25810;SDS011;13645;52.460;13.910;2023-07-20T03:48:41;8.57;;;6.72;;
25810;SDS011;13645;52.460;13.910;2023-07-20T04:00:05;10.57;;;7.55;;
25810;SDS011;13645;52.460;13.910;2023-07-20T04:03:43;7.95;;;6.80;;
25810;SDS011;13645;52.460;13.910;2023-07-20T04:40:03;9.85;;;6.80;;
25810;SDS011;13645;52.460;13.910;2023-07-20T04:42:37;10.07;;;7.30;;
25810;SDS011;13645;52.460;13.910;2023-07-20T04:52:36;9.43;;;7.88;;
25810;SDS011;13645;52.460;13.910;2023-07-20T04:55:13;10.48;;;8.00;;
25810;SDS011;13645;52.460;13.910;2023-07-20T04:57:40;13.20;;;9.00;;
25810;SDS011;13645;52.460;13.910;2023-07-20T05:00:07;10.68;;;8.93;;
25810;SDS011;13645;52.460;13.910;2023-07-20T05:02:39;12.77;;;9.13;;
25810;SDS011;13645;52.460;13.910;2023-07-20T05:06:00;12.80;;;9.05;;
25810;SDS011;13645;52.460;13.910;2023-07-20T05:15:27;12.40;;;9.60;;
25810;SDS011;13645;52.460;13.910;2023-07-20T05:18:55;11.35;;;9.82;;
25810;SDS011;13645;52.460;13.910;2023-07-20T05:22:17;15.85;;;10.90;;
25810;SDS011;13645;52.460;13.910;2023-07-20T05:25:34;16.52;;;11.07;;
25810;SDS011;13645;52.460;13.910;2023-07-20T05:28:03;16.20;;;12.18;;
25810;SDS011;13645;52.460;13.910;2023-07-20T05:34:20;18.95;;;12.43;;
25810;SDS011;13645;52.460;13.910;2023-07-20T05:37:13;14.95;;;12.18;;
25810;SDS011;13645;52.460;13.910;2023-07-20T05:43:57;15.95;;;11.48;;
25810;SDS011;13645;52.460;13.910;2023-07-20T05:46:40;13.90;;;10.35;;
25810;SDS011;13645;52.460;13.910;2023-07-20T05:49:25;14.93;;;10.73;;
25810;SDS011;13645;52.460;13.910;2023-07-20T05:52:00;18.90;;;11.68;;
25810;SDS011;13645;52.460;13.910;2023-07-20T05:54:27;15.75;;;11.05;;
25810;SDS011;13645;52.460;13.910;2023-07-20T05:56:55;16.10;;;11.15;;
25810;SDS011;13645;52.460;13.910;2023-07-20T05:59:21;12.75;;;9.43;;
25810;SDS011;13645;52.460;13.910;2023-07-20T06:01:49;11.68;;;9.18;;
25810;SDS011;13645;52.460;13.910;2023-07-20T06:04:16;13.07;;;10.25;;
25810;SDS011;13645;52.460;13.910;2023-07-20T06:06:43;15.25;;;10.35;;
25810;SDS011;13645;52.460;13.910;2023-07-20T06:09:11;11.90;;;9.35;;
25810;SDS011;13645;52.460;13.910;2023-07-20T06:11:38;13.55;;;10.15;;
25810;SDS011;13645;52.460;13.910;2023-07-20T06:14:05;12.30;;;8.30;;
25810;SDS011;13645;52.460;13.910;2023-07-20T06:16:32;9.80;;;8.77;;
25810;SDS011;13645;52.460;13.910;2023-07-20T06:19:00;15.32;;;10.30;;
25810;SDS011;13645;52.460;13.910;2023-07-20T06:21:27;11.75;;;10.10;;
25810;SDS011;13645;52.460;13.910;2023-07-20T06:23:54;13.05;;;9.48;;
25810;SDS011;13645;52.460;13.910;2023-07-20T06:26:20;11.10;;;8.90;;
25810;SDS011;13645;52.460;13.910;2023-07-20T06:28:48;12.10;;;9.20;;
25810;SDS011;13645;52.460;13.910;2023-07-20T06:31:15;10.68;;;8.82;;
25810;SDS011;13645;52.460;13.910;2023-07-20T06:33:42;11.50;;;8.13;;
25810;SDS011;13645;52.460;13.910;2023-07-20T06:36:09;13.13;;;8.45;;
25810;SDS011;13645;52.460;13.910;2023-07-20T06:38:37;13.13;;;8.48;;
25810;SDS011;13645;52.460;13.910;2023-07-20T06:41:04;14.60;;;8.45;;
25810;SDS011;13645;52.460;13.910;2023-07-20T06:43:33;8.80;;;7.88;;
25810;SDS011;13645;52.460;13.910;2023-07-20T06:46:04;9.13;;;6.78;;
25810;SDS011;13645;52.460;13.910;2023-07-20T06:48:30;7.85;;;6.00;;
25810;SDS011;13645;52.460;13.910;2023-07-20T06:50:57;9.93;;;6.68;;
25810;SDS011;13645;52.460;13.910;2023-07-20T06:53:24;8.73;;;6.43;;
25810;SDS011;13645;52.460;13.910;2023-07-20T06:55:51;7.50;;;5.85;;
25810;SDS011;13645;52.460;13.910;2023-07-20T06:58:17;7.97;;;5.22;;
25810;SDS011;13645;52.460;13.910;2023-07-20T07:00:45;5.90;;;4.15;;
25810;SDS011;13645;52.460;13.910;2023-07-20T07:03:12;6.68;;;3.90;;
25810;SDS011;13645;52.460;13.910;2023-07-20T07:05:38;8.27;;;4.10;;
25810;SDS011;13645;52.460;13.910;2023-07-20T07:08:06;5.85;;;4.13;;
25810;SDS011;13645;52.460;13.910;2023-07-20T07:10:33;4.28;;;3.88;;
25810;SDS011;13645;52.460;13.910;2023-07-20T07:13:02;6.35;;;3.75;;
25810;SDS011;13645;52.460;13.910;2023-07-20T07:15:31;5.88;;;3.30;;
25810;SDS011;13645;52.460;13.910;2023-07-20T07:17:58;7.38;;;3.38;;
25810;SDS011;13645;52.460;13.910;2023-07-20T07:20:25;4.13;;;3.40;;
25810;SDS011;13645;52.460;13.910;2023-07-20T07:22:53;4.63;;;3.17;;
25810;SDS011;13645;52.460;13.910;2023-07-20T07:25:27;6.55;;;3.63;;
25810;SDS011;13645;52.460;13.910;2023-07-20T07:28:03;5.90;;;2.85;;
25810;SDS011;13645;52.460;13.910;2023-07-20T07:30:45;7.43;;;3.30;;
25810;SDS011;13645;52.460;13.910;2023-07-20T07:33:14;4.55;;;3.08;;
25810;SDS011;13645;52.460;13.910;2023-07-20T07:35:46;4.15;;;3.00;;
25810;SDS011;13645;52.460;13.910;2023-07-20T07:38:15;13.38;;;4.05;;
25810;SDS011;13645;52.460;13.910;2023-07-20T07:41:02;5.20;;;3.35;;
25810;SDS011;13645;52.460;13.910;2023-07-20T07:43:29;4.65;;;2.70;;
25810;SDS011;13645;52.460;13.910;2023-07-20T07:45:56;6.63;;;3.17;;
25810;SDS011;13645;52.460;13.910;2023-07-20T07:48:23;7.05;;;3.30;;
25810;SDS011;13645;52.460;13.910;2023-07-20T07:50:51;6.53;;;3.40;;
25810;SDS011;13645;52.460;13.910;2023-07-20T07:53:19;6.00;;;3.40;;
25810;SDS011;13645;52.460;13.910;2023-07-20T07:55:47;4.15;;;3.05;;
25810;SDS011;13645;52.460;13.910;2023-07-20T07:58:14;9.18;;;3.72;;
25810;SDS011;13645;52.460;13.910;2023-07-20T08:00:44;8.70;;;3.58;;
25810;SDS011;13645;52.460;13.910;2023-07-20T08:03:11;6.90;;;3.47;;
25810;SDS011;13645;52.460;13.910;2023-07-20T08:05:41;4.07;;;2.90;;
25810;SDS011;13645;52.460;13.910;2023-07-20T08:08:08;3.70;;;2.85;;
25810;SDS011;13645;52.460;13.910;2023-07-20T08:10:52;8.35;;;3.10;;
25810;SDS011;13645;52.460;13.910;2023-07-20T08:13:20;6.32;;;2.30;;
25810;SDS011;13645;52.460;13.910;2023-07-20T08:15:49;7.45;;;2.30;;
25810;SDS011;13645;52.460;13.910;2023-07-20T08:18:18;5.85;;;1.67;;
25810;SDS011;13645;52.460;13.910;2023-07-20T08:20:45;2.13;;;1.50;;
25810;SDS011;13645;52.460;13.910;2023-07-20T08:23:13;6.80;;;1.67;;
25810;SDS011;13645;52.460;13.910;2023-07-20T08:25:39;4.30;;;1.33;;
25810;SDS011;13645;52.460;13.910;2023-07-20T08:28:16;2.50;;;1.50;;
25810;SDS011;13645;52.460;13.910;2023-07-20T08:30:44;6.03;;;1.42;;
25810;SDS011;13645;52.460;13.910;2023-07-20T08:33:16;3.83;;;1.40;;
25810;SDS011;13645;52.460;13.910;2023-07-20T08:35:45;4.53;;;1.30;;
25810;SDS011;13645;52.460;13.910;2023-07-20T08:38:13;4.18;;;1.52;;
25810;SDS011;13645;52.460;13.910;2023-07-20T08:40:40;3.60;;;1.40;;
25810;SDS011;13645;52.460;13.910;2023-07-20T08:43:09;4.90;;;1.20;;
25810;SDS011;13645;52.460;13.910;2023-07-20T08:45:38;1.33;;;1.02;;
25810;SDS011;13645;52.460;13.910;2023-07-20T08:48:06;6.28;;;1.48;;
25810;SDS011;13645;52.460;13.910;2023-07-20T08:50:34;2.15;;;1.02;;
25810;SDS011;13645;52.460;13.910;2023-07-20T08:53:02;2.33;;;1.30;;
25810;SDS011;13645;52.460;13.910;2023-07-20T08:55:29;3.33;;;1.42;;
25810;SDS011;13645;52.460;13.910;2023-07-20T08:57:58;4.32;;;1.10;;
25810;SDS011;13645;52.460;13.910;2023-07-20T09:00:25;2.60;;;1.00;;
25810;SDS011;13645;52.460;13.910;2023-07-20T09:02:54;8.75;;;1.83;;
25810;SDS011;13645;52.460;13.910;2023-07-20T09:05:24;8.18;;;1.30;;
25810;SDS011;13645;52.460;13.910;2023-07-20T09:11:34;2.58;;;0.82;;
25810;SDS011;13645;52.460;13.910;2023-07-20T09:14:04;3.42;;;1.08;;
25810;SDS011;13645;52.460;13.910;2023-07-20T09:16:48;2.25;;;1.20;;
25810;SDS011;13645;52.460;13.910;2023-07-20T09:19:19;3.47;;;0.75;;
25810;SDS011;13645;52.460;13.910;2023-07-20T09:21:47;2.05;;;0.93;;
25810;SDS011;13645;52.460;13.910;2023-07-20T09:24:16;1.60;;;0.80;;
25810;SDS011;13645;52.460;13.910;2023-07-20T09:26:45;1.15;;;0.70;;
25810;SDS011;13645;52.460;13.910;2023-07-20T09:29:20;3.22;;;0.80;;
25810;SDS011;13645;52.460;13.910;2023-07-20T09:32:00;0.77;;;0.60;;
25810;SDS011;13645;52.460;13.910;2023-07-20T09:34:28;3.85;;;0.63;;
25810;SDS011;13645;52.460;13.910;2023-07-20T09:37:00;8.90;;;1.52;;
25810;SDS011;13645;52.460;13.910;2023-07-20T09:39:28;8.30;;;1.30;;
25810;SDS011;13645;52.460;13.910;2023-07-20T09:41:59;2.60;;;1.02;;
25810;SDS011;13645;52.460;13.910;2023-07-20T09:44:30;1.23;;;0.85;;
25810;SDS011;13645;52.460;13.910;2023-07-20T09:47:02;5.85;;;1.00;;
25810;SDS011;13645;52.460;13.910;2023-07-20T09:49:30;2.50;;;0.63;;
25810;SDS011;13645;52.460;13.910;2023-07-20T09:52:17;0.85;;;0.60;;
25810;SDS011;13645;52.460;13.910;2023-07-20T09:54:48;1.27;;;0.50;;
25810;SDS011;13645;52.460;13.910;2023-07-20T09:57:16;3.38;;;0.63;;
25810;SDS011;13645;52.460;13.910;2023-07-20T09:59:43;1.05;;;0.40;;
25810;SDS011;13645;52.460;13.910;2023-07-20T10:02:32;0.98;;;0.50;;
25810;SDS011;13645;52.460;13.910;2023-07-20T10:05:01;3.75;;;0.50;;
25810;SDS011;13645;52.460;13.910;2023-07-20T10:07:34;0.98;;;0.60;;
25810;SDS011;13645;52.460;13.910;2023-07-20T10:10:06;1.10;;;0.65;;
25810;SDS011;13645;52.460;13.910;2023-07-20T10:12:37;0.82;;;0.60;;
25810;SDS011;13645;52.460;13.910;2023-07-20T10:15:18;0.85;;;0.52;;
25810;SDS011;13645;52.460;13.910;2023-07-20T10:20:41;2.85;;;0.80;;
25810;SDS011;13645;52.460;13.910;2023-07-20T10:23:29;2.25;;;0.80;;
25810;SDS011;13645;52.460;13.910;2023-07-20T10:25:57;2.50;;;0.90;;
25810;SDS011;13645;52.460;13.910;2023-07-20T10:28:26;0.98;;;0.75;;
25810;SDS011;13645;52.460;13.910;2023-07-20T10:30:53;0.85;;;0.50;;
25810;SDS011;13645;52.460;13.910;2023-07-20T10:33:20;0.85;;;0.60;;
25810;SDS011;13645;52.460;13.910;2023-07-20T10:35:55;0.65;;;0.40;;
25810;SDS011;13645;52.460;13.910;2023-07-20T10:39:12;1.08;;;0.50;;
25810;SDS011;13645;52.460;13.910;2023-07-20T10:41:21;0.90;;;0.52;;
25810;SDS011;13645;52.460;13.910;2023-07-20T10:43:50;3.03;;;0.60;;
25810;SDS011;13645;52.460;13.910;2023-07-20T10:46:33;1.50;;;0.65;;
25810;SDS011;13645;52.460;13.910;2023-07-20T10:49:07;2.72;;;0.50;;
25810;SDS011;13645;52.460;13.910;2023-07-20T10:51:45;4.55;;;0.68;;
25810;SDS011;13645;52.460;13.910;2023-07-20T10:56:44;0.70;;;0.60;;
25810;SDS011;13645;52.460;13.910;2023-07-20T10:59:17;2.70;;;0.60;;
25810;SDS011;13645;52.460;13.910;2023-07-20T11:01:56;3.70;;;0.95;;
25810;SDS011;13645;52.460;13.910;2023-07-20T11:05:02;3.78;;;0.60;;
25810;SDS011;13645;52.460;13.910;2023-07-20T11:07:37;1.25;;;0.80;;
25810;SDS011;13645;52.460;13.910;2023-07-20T11:10:14;1.23;;;0.63;;
25810;SDS011;13645;52.460;13.910;2023-07-20T11:18:14;1.02;;;0.70;;
25810;SDS011;13645;52.460;13.910;2023-07-20T11:20:41;2.35;;;0.63;;
25810;SDS011;13645;52.460;13.910;2023-07-20T11:23:08;2.42;;;0.52;;
25810;SDS011;13645;52.460;13.910;2023-07-20T11:25:39;4.53;;;0.80;;
25810;SDS011;13645;52.460;13.910;2023-07-20T11:28:07;1.88;;;0.75;;
25810;SDS011;13645;52.460;13.910;2023-07-20T11:30:37;2.10;;;0.60;;
25810;SDS011;13645;52.460;13.910;2023-07-20T11:33:08;1.05;;;0.80;;
25810;SDS011;13645;52.460;13.910;2023-07-20T11:35:44;1.52;;;0.70;;
25810;SDS011;13645;52.460;13.910;2023-07-20T11:38:15;4.20;;;0.80;;
25810;SDS011;13645;52.460;13.910;2023-07-20T11:40:44;0.90;;;0.70;;
25810;SDS011;13645;52.460;13.910;2023-07-20T11:43:12;2.45;;;0.80;;
25810;SDS011;13645;52.460;13.910;2023-07-20T11:45:43;1.95;;;0.70;;
25810;SDS011;13645;52.460;13.910;2023-07-20T11:48:17;0.70;;;0.50;;
25810;SDS011;13645;52.460;13.910;2023-07-20T11:50:44;1.77;;;0.70;;
25810;SDS011;13645;52.460;13.910;2023-07-20T11:53:16;3.05;;;0.55;;
25810;SDS011;13645;52.460;13.910;2023-07-20T11:55:44;3.17;;;0.80;;
25810;SDS011;13645;52.460;13.910;2023-07-20T11:58:12;1.27;;;0.60;;
25810;SDS011;13645;52.460;13.910;2023-07-20T12:00:43;1.10;;;0.57;;
25810;SDS011;13645;52.460;13.910;2023-07-20T12:03:11;2.95;;;0.85;;
25810;SDS011;13645;52.460;13.910;2023-07-20T12:05:38;2.85;;;0.60;;
25810;SDS011;13645;52.460;13.910;2023-07-20T12:08:25;12.77;;;1.20;;
25810;SDS011;13645;52.460;13.910;2023-07-20T12:10:52;12.85;;;1.15;;
25810;SDS011;13645;52.460;13.910;2023-07-20T12:13:21;0.93;;;0.52;;
25810;SDS011;13645;52.460;13.910;2023-07-20T12:15:49;0.85;;;0.50;;
25810;SDS011;13645;52.460;13.910;2023-07-20T12:18:22;1.33;;;0.80;;
25810;SDS011;13645;52.460;13.910;2023-07-20T12:20:58;3.40;;;0.70;;
25810;SDS011;13645;52.460;13.910;2023-07-20T12:23:25;0.90;;;0.50;;
25810;SDS011;13645;52.460;13.910;2023-07-20T12:25:55;1.42;;;0.80;;
25810;SDS011;13645;52.460;13.910;2023-07-20T12:28:23;3.55;;;0.65;;
25810;SDS011;13645;52.460;13.910;2023-07-20T12:30:49;1.80;;;0.60;;
25810;SDS011;13645;52.460;13.910;2023-07-20T12:33:23;0.75;;;0.57;;
25810;SDS011;13645;52.460;13.910;2023-07-20T12:35:50;3.05;;;0.55;;
25810;SDS011;13645;52.460;13.910;2023-07-20T12:38:17;1.20;;;0.55;;
25810;SDS011;13645;52.460;13.910;2023-07-20T12:40:44;0.60;;;0.40;;
25810;SDS011;13645;52.460;13.910;2023-07-20T12:43:11;3.55;;;0.60;;
25810;SDS011;13645;52.460;13.910;2023-07-20T12:45:37;1.23;;;0.60;;
25810;SDS011;13645;52.460;13.910;2023-07-20T12:48:04;4.30;;;0.88;;
25810;SDS011;13645;52.460;13.910;2023-07-20T12:50:31;0.20;;;0.20;;
25810;SDS011;13645;52.460;13.910;2023-07-20T12:52:58;6.70;;;0.70;;
25810;SDS011;13645;52.460;13.910;2023-07-20T12:55:25;2.10;;;0.57;;
25810;SDS011;13645;52.460;13.910;2023-07-20T12:57:51;0.98;;;0.32;;
25810;SDS011;13645;52.460;13.910;2023-07-20T13:00:18;3.78;;;0.90;;
25810;SDS011;13645;52.460;13.910;2023-07-20T13:02:45;3.78;;;0.70;;
25810;SDS011;13645;52.460;13.910;2023-07-20T13:05:13;1.38;;;0.50;;
25810;SDS011;13645;52.460;13.910;2023-07-20T13:07:40;1.83;;;0.50;;
25810;SDS011;13645;52.460;13.910;2023-07-20T13:10:10;1.67;;;0.65;;
25810;SDS011;13645;52.460;13.910;2023-07-20T13:12:38;2.70;;;0.70;;
25810;SDS011;13645;52.460;13.910;2023-07-20T13:15:06;3.50;;;0.70;;
25810;SDS011;13645;52.460;13.910;2023-07-20T13:17:34;3.75;;;0.68;;
25810;SDS011;13645;52.460;13.910;2023-07-20T13:20:03;2.33;;;1.05;;
25810;SDS011;13645;52.460;13.910;2023-07-20T13:22:35;2.83;;;0.80;;
25810;SDS011;13645;52.460;13.910;2023-07-20T13:25:02;3.83;;;1.02;;
25810;SDS011;13645;52.460;13.910;2023-07-20T13:27:29;1.75;;;0.80;;
25810;SDS011;13645;52.460;13.910;2023-07-20T13:29:58;0.95;;;0.85;;
25810;SDS011;13645;52.460;13.910;2023-07-20T13:32:26;1.75;;;0.80;;
25810;SDS011;13645;52.460;13.910;2023-07-20T13:34:58;1.98;;;0.50;;
25810;SDS011;13645;52.460;13.910;2023-07-20T13:37:25;2.35;;;0.50;;
25810;SDS011;13645;52.460;13.910;2023-07-20T13:39:53;2.60;;;0.63;;
25810;SDS011;13645;52.460;13.910;2023-07-20T13:42:20;1.65;;;0.43;;
25810;SDS011;13645;52.460;13.910;2023-07-20T13:44:48;0.47;;;0.45;;
25810;SDS011;13645;52.460;13.910;2023-07-20T13:47:15;1.55;;;0.70;;
25810;SDS011;13645;52.460;13.910;2023-07-20T13:49:44;2.38;;;0.50;;
25810;SDS011;13645;52.460;13.910;2023-07-20T13:52:13;1.52;;;0.50;;
25810;SDS011;13645;52.460;13.910;2023-07-20T13:54:44;3.33;;;0.70;;
25810;SDS011;13645;52.460;13.910;2023-07-20T13:57:35;0.88;;;0.52;;
25810;SDS011;13645;52.460;13.910;2023-07-20T14:04:51;2.10;;;0.40;;
25810;SDS011;13645;52.460;13.910;2023-07-20T14:08:02;0.93;;;0.50;;
25810;SDS011;13645;52.460;13.910;2023-07-20T14:10:41;0.50;;;0.50;;
25810;SDS011;13645;52.460;13.910;2023-07-20T14:13:34;1.05;;;0.50;;
25810;SDS011;13645;52.460;13.910;2023-07-20T14:16:16;2.22;;;0.77;;
25810;SDS011;13645;52.460;13.910;2023-07-20T14:18:49;0.50;;;0.45;;
25810;SDS011;13645;52.460;13.910;2023-07-20T14:21:16;2.20;;;0.70;;
25810;SDS011;13645;52.460;13.910;2023-07-20T14:23:47;1.70;;;1.15;;
25810;SDS011;13645;52.460;13.910;2023-07-20T14:26:19;3.45;;;0.70;;
25810;SDS011;13645;52.460;13.910;2023-07-20T14:28:48;0.85;;;0.50;;
25810;SDS011;13645;52.460;13.910;2023-07-20T14:31:16;1.85;;;0.60;;
25810;SDS011;13645;52.460;13.910;2023-07-20T14:33:47;0.60;;;0.60;;
25810;SDS011;13645;52.460;13.910;2023-07-20T14:36:45;2.30;;;0.50;;
25810;SDS011;13645;52.460;13.910;2023-07-20T14:39:12;0.95;;;0.55;;
25810;SDS011;13645;52.460;13.910;2023-07-20T14:41:41;1.30;;;0.50;;
25810;SDS011;13645;52.460;13.910;2023-07-20T14:44:08;5.63;;;0.63;;
25810;SDS011;13645;52.460;13.910;2023-07-20T14:46:38;1.33;;;0.75;;
25810;SDS011;13645;52.460;13.910;2023-07-20T14:49:05;3.58;;;0.90;;
25810;SDS011;13645;52.460;13.910;2023-07-20T14:51:32;5.00;;;0.70;;
25810;SDS011;13645;52.460;13.910;2023-07-20T14:54:02;2.58;;;0.60;;
25810;SDS011;13645;52.460;13.910;2023-07-20T14:56:29;4.80;;;0.50;;
25810;SDS011;13645;52.460;13.910;2023-07-20T14:58:56;0.80;;;0.60;;
25810;SDS011;13645;52.460;13.910;2023-07-20T15:01:24;2.25;;;0.60;;
25810;SDS011;13645;52.460;13.910;2023-07-20T15:03:51;0.70;;;0.50;;
25810;SDS011;13645;52.460;13.910;2023-07-20T15:06:22;1.15;;;0.73;;
25810;SDS011;13645;52.460;13.910;2023-07-20T15:08:50;3.65;;;0.60;;
25810;SDS011;13645;52.460;13.910;2023-07-20T15:11:16;1.15;;;0.50;;
25810;SDS011;13645;52.460;13.910;2023-07-20T15:13:43;3.15;;;0.50;;
25810;SDS011;13645;52.460;13.910;2023-07-20T15:16:10;1.25;;;0.55;;
25810;SDS011;13645;52.460;13.910;2023-07-20T15:18:40;1.83;;;0.60;;
25810;SDS011;13645;52.460;13.910;2023-07-20T15:21:14;3.08;;;0.52;;
25810;SDS011;13645;52.460;13.910;2023-07-20T15:23:42;4.63;;;1.10;;
25810;SDS011;13645;52.460;13.910;2023-07-20T15:26:09;2.03;;;0.80;;
25810;SDS011;13645;52.460;13.910;2023-07-20T15:28:40;1.55;;;0.63;;
25810;SDS011;13645;52.460;13.910;2023-07-20T15:31:07;0.60;;;0.60;;
25810;SDS011;13645;52.460;13.910;2023-07-20T15:33:34;1.58;;;0.73;;
25810;SDS011;13645;52.460;13.910;2023-07-20T15:36:01;0.95;;;0.60;;
25810;SDS011;13645;52.460;13.910;2023-07-20T15:38:28;4.03;;;0.52;;
25810;SDS011;13645;52.460;13.910;2023-07-20T15:40:54;1.27;;;0.57;;
25810;SDS011;13645;52.460;13.910;2023-07-20T15:43:23;2.75;;;0.73;;
25810;SDS011;13645;52.460;13.910;2023-07-20T15:45:49;10.38;;;1.20;;
25810;SDS011;13645;52.460;13.910;2023-07-20T15:48:17;6.82;;;1.27;;
25810;SDS011;13645;52.460;13.910;2023-07-20T15:50:47;18.75;;;2.33;;
25810;SDS011;13645;52.460;13.910;2023-07-20T15:53:16;2.95;;;0.90;;
25810;SDS011;13645;52.460;13.910;2023-07-20T15:55:43;2.28;;;0.73;;
25810;SDS011;13645;52.460;13.910;2023-07-20T15:58:09;1.25;;;0.60;;
25810;SDS011;13645;52.460;13.910;2023-07-20T16:00:36;11.38;;;1.30;;
25810;SDS011;13645;52.460;13.910;2023-07-20T16:03:03;1.15;;;0.55;;
25810;SDS011;13645;52.460;13.910;2023-07-20T16:05:32;3.10;;;0.80;;
25810;SDS011;13645;52.460;13.910;2023-07-20T16:07:59;2.90;;;0.60;;
25810;SDS011;13645;52.460;13.910;2023-07-20T16:10:26;3.97;;;0.60;;
25810;SDS011;13645;52.460;13.910;2023-07-20T16:12:54;3.72;;;0.70;;
25810;SDS011;13645;52.460;13.910;2023-07-20T16:15:21;4.38;;;0.70;;
25810;SDS011;13645;52.460;13.910;2023-07-20T16:17:51;8.88;;;1.63;;
25810;SDS011;13645;52.460;13.910;2023-07-20T16:20:18;3.53;;;0.75;;
25810;SDS011;13645;52.460;13.910;2023-07-20T16:22:45;5.13;;;2.40;;
25810;SDS011;13645;52.460;13.910;2023-07-20T16:25:12;2.72;;;0.88;;
25810;SDS011;13645;52.460;13.910;2023-07-20T16:27:39;2.13;;;0.77;;
25810;SDS011;13645;52.460;13.910;2023-07-20T16:30:06;4.00;;;1.10;;
25810;SDS011;13645;52.460;13.910;2023-07-20T16:32:33;1.35;;;0.90;;
25810;SDS011;13645;52.460;13.910;2023-07-20T16:35:00;1.73;;;0.88;;
25810;SDS011;13645;52.460;13.910;2023-07-20T16:37:30;1.70;;;0.90;;
25810;SDS011;13645;52.460;13.910;2023-07-20T16:40:00;4.72;;;1.50;;
25810;SDS011;13645;52.460;13.910;2023-07-20T16:42:27;4.53;;;0.90;;
25810;SDS011;13645;52.460;13.910;2023-07-20T16:44:57;2.45;;;0.80;;
25810;SDS011;13645;52.460;13.910;2023-07-20T16:47:24;3.17;;;0.68;;
25810;SDS011;13645;52.460;13.910;2023-07-20T16:49:51;1.83;;;0.70;;
25810;SDS011;13645;52.460;13.910;2023-07-20T16:52:18;3.38;;;0.80;;
25810;SDS011;13645;52.460;13.910;2023-07-20T16:54:44;1.50;;;0.80;;